sensor_id;sensor_type;location;lat;lon;timestamp;P1;durP1;ratioP1;P2;durP2;ratioP2
64061;SDS011;50308;47.438;-1.528;2023-04-06T00:01:58;29.83;;;13.38;;
64061;SDS011;50308;47.438;-1.528;2023-04-06T00:04:24;31.65;;;13.85;;
64061;SDS011;50308;47.438;-1.528;2023-04-06T00:06:50;28.55;;;14.02;;
64061;SDS011;50308;47.438;-1.528;2023-04-06T00:09:16;29.50;;;13.45;;
64061;SDS011;50308;47.438;-1.528;2023-04-06T00:11:42;27.10;;;13.00;;
64061;SDS011;50308;47.438;-1.528;2023-04-06T00:14:07;28.20;;;13.35;;
64061;SDS011;50308;47.438;-1.528;2023-04-06T00:16:33;28.63;;;13.30;;
64061;SDS011;50308;47.438;-1.528;2023-04-06T00:18:59;27.52;;;13.73;;
64061;SDS011;50308;47.438;-1.528;2023-04-06T00:21:24;28.95;;;12.48;;
64061;SDS011;50308;47.438;-1.528;2023-04-06T00:23:50;32.17;;;14.20;;
64061;SDS011;50308;47.438;-1.528;2023-04-06T00:26:16;26.95;;;12.63;;
64061;SDS011;50308;47.438;-1.528;2023-04-06T00:28:42;27.88;;;13.40;;
64061;SDS011;50308;47.438;-1.528;2023-04-06T00:31:07;29.40;;;13.20;;
64061;SDS011;50308;47.438;-1.528;2023-04-06T00:33:33;27.08;;;13.70;;
64061;SDS011;50308;47.438;-1.528;2023-04-06T00:35:59;28.23;;;13.32;;
64061;SDS011;50308;47.438;-1.528;2023-04-06T00:38:24;29.77;;;13.20;;
64061;SDS011;50308;47.438;-1.528;2023-04-06T00:40:51;26.83;;;12.73;;
64061;SDS011;50308;47.438;-1.528;2023-04-06T00:43:16;30.80;;;13.02;;
64061;SDS011;50308;47.438;-1.528;2023-04-06T00:45:42;28.52;;;11.93;;
64061;SDS011;50308;47.438;-1.528;2023-04-06T00:48:08;28.85;;;13.20;;
64061;SDS011;50308;47.438;-1.528;2023-04-06T00:50:34;28.85;;;13.38;;
64061;SDS011;50308;47.438;-1.528;2023-04-06T00:53:00;29.45;;;12.32;;
64061;SDS011;50308;47.438;-1.528;2023-04-06T00:55:26;28.60;;;12.38;;
64061;SDS011;50308;47.438;-1.528;2023-04-06T00:57:53;32.97;;;12.48;;
64061;SDS011;50308;47.438;-1.528;2023-04-06T01:00:19;25.10;;;12.88;;
64061;SDS011;50308;47.438;-1.528;2023-04-06T01:02:45;26.80;;;13.50;;
64061;SDS011;50308;47.438;-1.528;2023-04-06T01:05:12;26.15;;;12.18;;
64061;SDS011;50308;47.438;-1.528;2023-04-06T01:07:38;21.50;;;10.98;;
64061;SDS011;50308;47.438;-1.528;2023-04-06T01:10:04;28.17;;;13.18;;
64061;SDS011;50308;47.438;-1.528;2023-04-06T01:12:30;26.70;;;12.63;;
64061;SDS011;50308;47.438;-1.528;2023-04-06T01:14:56;28.92;;;12.02;;
64061;SDS011;50308;47.438;-1.528;2023-04-06T01:17:21;23.75;;;12.98;;
64061;SDS011;50308;47.438;-1.528;2023-04-06T01:19:47;27.33;;;12.43;;
64061;SDS011;50308;47.438;-1.528;2023-04-06T01:22:17;25.45;;;11.85;;
64061;SDS011;50308;47.438;-1.528;2023-04-06T01:24:44;27.77;;;12.00;;
64061;SDS011;50308;47.438;-1.528;2023-04-06T01:27:10;23.10;;;10.45;;
64061;SDS011;50308;47.438;-1.528;2023-04-06T01:29:36;30.02;;;11.15;;
64061;SDS011;50308;47.438;-1.528;2023-04-06T01:32:02;24.25;;;12.63;;
64061;SDS011;50308;47.438;-1.528;2023-04-06T01:34:28;25.73;;;11.73;;
64061;SDS011;50308;47.438;-1.528;2023-04-06T01:36:53;25.35;;;12.00;;
64061;SDS011;50308;47.438;-1.528;2023-04-06T01:39:19;25.92;;;11.02;;
64061;SDS011;50308;47.438;-1.528;2023-04-06T01:41:45;20.10;;;10.25;;
64061;SDS011;50308;47.438;-1.528;2023-04-06T01:44:16;24.33;;;12.52;;
64061;SDS011;50308;47.438;-1.528;2023-04-06T01:46:43;19.23;;;10.05;;
64061;SDS011;50308;47.438;-1.528;2023-04-06T01:49:09;23.45;;;11.57;;
64061;SDS011;50308;47.438;-1.528;2023-04-06T01:51:35;23.90;;;10.60;;
64061;SDS011;50308;47.438;-1.528;2023-04-06T01:54:01;24.50;;;11.25;;
64061;SDS011;50308;47.438;-1.528;2023-04-06T01:56:26;24.40;;;11.98;;
64061;SDS011;50308;47.438;-1.528;2023-04-06T01:58:52;25.63;;;12.88;;
64061;SDS011;50308;47.438;-1.528;2023-04-06T02:01:18;24.08;;;11.43;;
64061;SDS011;50308;47.438;-1.528;2023-04-06T02:03:43;26.45;;;11.23;;
64061;SDS011;50308;47.438;-1.528;2023-04-06T02:06:09;19.90;;;10.50;;
64061;SDS011;50308;47.438;-1.528;2023-04-06T02:08:35;23.23;;;10.57;;
64061;SDS011;50308;47.438;-1.528;2023-04-06T02:11:01;25.83;;;11.57;;
64061;SDS011;50308;47.438;-1.528;2023-04-06T02:13:26;28.02;;;11.38;;
64061;SDS011;50308;47.438;-1.528;2023-04-06T02:15:52;20.48;;;11.50;;
64061;SDS011;50308;47.438;-1.528;2023-04-06T02:18:18;29.10;;;12.02;;
64061;SDS011;50308;47.438;-1.528;2023-04-06T02:20:44;26.48;;;11.52;;
64061;SDS011;50308;47.438;-1.528;2023-04-06T02:23:10;23.30;;;11.43;;
64061;SDS011;50308;47.438;-1.528;2023-04-06T02:25:36;29.60;;;14.30;;
64061;SDS011;50308;47.438;-1.528;2023-04-06T02:28:02;22.60;;;11.43;;
64061;SDS011;50308;47.438;-1.528;2023-04-06T02:30:28;24.85;;;12.07;;
64061;SDS011;50308;47.438;-1.528;2023-04-06T02:32:54;27.85;;;12.27;;
64061;SDS011;50308;47.438;-1.528;2023-04-06T02:35:20;26.55;;;12.30;;
64061;SDS011;50308;47.438;-1.528;2023-04-06T02:37:46;26.95;;;12.93;;
64061;SDS011;50308;47.438;-1.528;2023-04-06T02:40:12;27.15;;;13.32;;
64061;SDS011;50308;47.438;-1.528;2023-04-06T02:42:38;28.95;;;13.40;;
64061;SDS011;50308;47.438;-1.528;2023-04-06T02:45:05;28.05;;;12.88;;
64061;SDS011;50308;47.438;-1.528;2023-04-06T02:47:31;29.67;;;13.43;;
64061;SDS011;50308;47.438;-1.528;2023-04-06T02:49:56;28.60;;;12.95;;
64061;SDS011;50308;47.438;-1.528;2023-04-06T02:52:22;29.20;;;12.73;;
64061;SDS011;50308;47.438;-1.528;2023-04-06T02:54:48;28.58;;;12.40;;
64061;SDS011;50308;47.438;-1.528;2023-04-06T02:57:16;29.02;;;12.88;;
64061;SDS011;50308;47.438;-1.528;2023-04-06T02:59:41;26.77;;;12.38;;
64061;SDS011;50308;47.438;-1.528;2023-04-06T03:02:07;28.95;;;13.23;;
64061;SDS011;50308;47.438;-1.528;2023-04-06T03:04:33;26.88;;;12.70;;
64061;SDS011;50308;47.438;-1.528;2023-04-06T03:06:58;25.02;;;11.98;;
64061;SDS011;50308;47.438;-1.528;2023-04-06T03:09:24;30.02;;;12.23;;
64061;SDS011;50308;47.438;-1.528;2023-04-06T03:11:50;27.95;;;12.43;;
64061;SDS011;50308;47.438;-1.528;2023-04-06T03:14:16;27.73;;;11.90;;
64061;SDS011;50308;47.438;-1.528;2023-04-06T03:16:46;34.08;;;13.35;;
64061;SDS011;50308;47.438;-1.528;2023-04-06T03:19:12;26.38;;;12.02;;
64061;SDS011;50308;47.438;-1.528;2023-04-06T03:21:38;28.08;;;12.65;;
64061;SDS011;50308;47.438;-1.528;2023-04-06T03:24:04;26.95;;;12.25;;
64061;SDS011;50308;47.438;-1.528;2023-04-06T03:26:30;30.35;;;12.90;;
64061;SDS011;50308;47.438;-1.528;2023-04-06T03:28:56;23.38;;;11.75;;
64061;SDS011;50308;47.438;-1.528;2023-04-06T03:31:22;27.73;;;12.50;;
64061;SDS011;50308;47.438;-1.528;2023-04-06T03:33:48;31.55;;;13.00;;
64061;SDS011;50308;47.438;-1.528;2023-04-06T03:36:13;27.08;;;12.40;;
64061;SDS011;50308;47.438;-1.528;2023-04-06T03:38:39;29.13;;;12.57;;
64061;SDS011;50308;47.438;-1.528;2023-04-06T03:41:05;29.02;;;12.23;;
64061;SDS011;50308;47.438;-1.528;2023-04-06T03:43:31;29.20;;;12.60;;
64061;SDS011;50308;47.438;-1.528;2023-04-06T03:45:56;25.65;;;12.00;;
64061;SDS011;50308;47.438;-1.528;2023-04-06T03:48:22;25.35;;;12.35;;
64061;SDS011;50308;47.438;-1.528;2023-04-06T03:50:48;22.13;;;11.00;;
64061;SDS011;50308;47.438;-1.528;2023-04-06T03:53:14;27.85;;;12.88;;
64061;SDS011;50308;47.438;-1.528;2023-04-06T03:55:39;27.77;;;12.27;;
64061;SDS011;50308;47.438;-1.528;2023-04-06T03:58:05;22.55;;;11.45;;
64061;SDS011;50308;47.438;-1.528;2023-04-06T04:00:31;25.27;;;11.20;;
64061;SDS011;50308;47.438;-1.528;2023-04-06T04:02:57;28.52;;;11.75;;
64061;SDS011;50308;47.438;-1.528;2023-04-06T04:05:23;24.00;;;12.18;;
64061;SDS011;50308;47.438;-1.528;2023-04-06T04:07:50;26.48;;;11.38;;
64061;SDS011;50308;47.438;-1.528;2023-04-06T04:10:17;28.77;;;11.48;;
64061;SDS011;50308;47.438;-1.528;2023-04-06T04:12:42;25.80;;;11.82;;
64061;SDS011;50308;47.438;-1.528;2023-04-06T04:15:08;24.42;;;10.85;;
64061;SDS011;50308;47.438;-1.528;2023-04-06T04:17:34;24.88;;;12.02;;
64061;SDS011;50308;47.438;-1.528;2023-04-06T04:20:00;21.88;;;11.30;;
64061;SDS011;50308;47.438;-1.528;2023-04-06T04:22:26;22.02;;;11.60;;
64061;SDS011;50308;47.438;-1.528;2023-04-06T04:24:52;24.13;;;12.05;;
64061;SDS011;50308;47.438;-1.528;2023-04-06T04:27:18;26.08;;;11.27;;
64061;SDS011;50308;47.438;-1.528;2023-04-06T04:29:45;23.55;;;11.85;;
64061;SDS011;50308;47.438;-1.528;2023-04-06T04:32:11;28.67;;;13.05;;
64061;SDS011;50308;47.438;-1.528;2023-04-06T04:34:36;25.90;;;10.75;;
64061;SDS011;50308;47.438;-1.528;2023-04-06T04:37:05;25.50;;;11.60;;
64061;SDS011;50308;47.438;-1.528;2023-04-06T04:39:31;21.20;;;11.40;;
64061;SDS011;50308;47.438;-1.528;2023-04-06T04:41:57;25.13;;;11.77;;
64061;SDS011;50308;47.438;-1.528;2023-04-06T04:44:23;37.65;;;15.93;;
64061;SDS011;50308;47.438;-1.528;2023-04-06T04:46:48;40.45;;;22.83;;
64061;SDS011;50308;47.438;-1.528;2023-04-06T04:49:14;28.80;;;15.68;;
64061;SDS011;50308;47.438;-1.528;2023-04-06T04:51:40;36.40;;;18.20;;
64061;SDS011;50308;47.438;-1.528;2023-04-06T04:54:06;35.15;;;18.95;;
64061;SDS011;50308;47.438;-1.528;2023-04-06T04:56:32;34.05;;;17.38;;
64061;SDS011;50308;47.438;-1.528;2023-04-06T04:58:57;32.15;;;17.20;;
64061;SDS011;50308;47.438;-1.528;2023-04-06T05:01:23;38.50;;;18.33;;
64061;SDS011;50308;47.438;-1.528;2023-04-06T05:03:49;59.78;;;24.40;;
64061;SDS011;50308;47.438;-1.528;2023-04-06T05:06:15;45.88;;;20.00;;
64061;SDS011;50308;47.438;-1.528;2023-04-06T05:08:41;37.78;;;18.33;;
64061;SDS011;50308;47.438;-1.528;2023-04-06T05:11:07;41.42;;;19.38;;
64061;SDS011;50308;47.438;-1.528;2023-04-06T05:13:33;38.17;;;18.02;;
64061;SDS011;50308;47.438;-1.528;2023-04-06T05:15:59;45.72;;;19.63;;
64061;SDS011;50308;47.438;-1.528;2023-04-06T05:18:25;40.15;;;18.60;;
64061;SDS011;50308;47.438;-1.528;2023-04-06T05:20:51;40.60;;;17.40;;
64061;SDS011;50308;47.438;-1.528;2023-04-06T05:23:17;33.95;;;17.08;;
64061;SDS011;50308;47.438;-1.528;2023-04-06T05:25:42;28.58;;;15.05;;
64061;SDS011;50308;47.438;-1.528;2023-04-06T05:28:08;31.60;;;14.10;;
64061;SDS011;50308;47.438;-1.528;2023-04-06T05:30:34;31.27;;;14.75;;
64061;SDS011;50308;47.438;-1.528;2023-04-06T05:33:00;33.83;;;15.82;;
64061;SDS011;50308;47.438;-1.528;2023-04-06T05:35:27;33.35;;;16.80;;
64061;SDS011;50308;47.438;-1.528;2023-04-06T05:37:52;28.42;;;14.50;;
64061;SDS011;50308;47.438;-1.528;2023-04-06T05:40:18;31.33;;;15.60;;
64061;SDS011;50308;47.438;-1.528;2023-04-06T05:42:44;32.92;;;15.85;;
64061;SDS011;50308;47.438;-1.528;2023-04-06T05:45:10;30.23;;;15.77;;
64061;SDS011;50308;47.438;-1.528;2023-04-06T05:47:41;33.22;;;16.98;;
64061;SDS011;50308;47.438;-1.528;2023-04-06T05:50:09;34.72;;;16.60;;
64061;SDS011;50308;47.438;-1.528;2023-04-06T05:52:39;59.65;;;27.77;;
64061;SDS011;50308;47.438;-1.528;2023-04-06T05:55:08;61.47;;;30.77;;
64061;SDS011;50308;47.438;-1.528;2023-04-06T05:57:34;57.08;;;26.45;;
64061;SDS011;50308;47.438;-1.528;2023-04-06T06:00:00;146.63;;;62.63;;
64061;SDS011;50308;47.438;-1.528;2023-04-06T06:02:26;118.72;;;51.55;;
64061;SDS011;50308;47.438;-1.528;2023-04-06T06:04:51;100.35;;;48.28;;
64061;SDS011;50308;47.438;-1.528;2023-04-06T06:07:17;93.25;;;41.85;;
64061;SDS011;50308;47.438;-1.528;2023-04-06T06:09:43;68.65;;;33.03;;
64061;SDS011;50308;47.438;-1.528;2023-04-06T06:12:08;59.88;;;29.80;;
64061;SDS011;50308;47.438;-1.528;2023-04-06T06:14:34;53.60;;;29.83;;
64061;SDS011;50308;47.438;-1.528;2023-04-06T06:17:00;42.85;;;22.42;;
64061;SDS011;50308;47.438;-1.528;2023-04-06T06:19:26;48.92;;;24.30;;
64061;SDS011;50308;47.438;-1.528;2023-04-06T06:21:51;44.70;;;24.08;;
64061;SDS011;50308;47.438;-1.528;2023-04-06T06:24:17;44.75;;;21.70;;
64061;SDS011;50308;47.438;-1.528;2023-04-06T06:26:43;42.45;;;20.45;;
64061;SDS011;50308;47.438;-1.528;2023-04-06T06:29:08;39.30;;;19.20;;
64061;SDS011;50308;47.438;-1.528;2023-04-06T06:31:34;44.03;;;19.05;;
64061;SDS011;50308;47.438;-1.528;2023-04-06T06:34:00;39.75;;;18.27;;
64061;SDS011;50308;47.438;-1.528;2023-04-06T06:36:27;43.03;;;19.85;;
64061;SDS011;50308;47.438;-1.528;2023-04-06T06:38:53;54.65;;;27.55;;
64061;SDS011;50308;47.438;-1.528;2023-04-06T06:41:18;53.95;;;30.08;;
64061;SDS011;50308;47.438;-1.528;2023-04-06T06:43:44;45.42;;;24.95;;
64061;SDS011;50308;47.438;-1.528;2023-04-06T06:46:10;43.10;;;19.15;;
64061;SDS011;50308;47.438;-1.528;2023-04-06T06:48:36;33.63;;;17.63;;
64061;SDS011;50308;47.438;-1.528;2023-04-06T06:51:01;36.90;;;15.82;;
64061;SDS011;50308;47.438;-1.528;2023-04-06T06:53:27;39.88;;;17.77;;
64061;SDS011;50308;47.438;-1.528;2023-04-06T06:55:53;36.88;;;17.77;;
64061;SDS011;50308;47.438;-1.528;2023-04-06T06:58:19;40.92;;;17.13;;
64061;SDS011;50308;47.438;-1.528;2023-04-06T07:00:45;38.42;;;16.63;;
64061;SDS011;50308;47.438;-1.528;2023-04-06T07:03:11;36.90;;;18.23;;
64061;SDS011;50308;47.438;-1.528;2023-04-06T07:05:37;38.67;;;16.58;;
64061;SDS011;50308;47.438;-1.528;2023-04-06T07:08:03;34.60;;;16.45;;
64061;SDS011;50308;47.438;-1.528;2023-04-06T07:10:29;40.67;;;16.70;;
64061;SDS011;50308;47.438;-1.528;2023-04-06T07:12:55;36.28;;;15.50;;
64061;SDS011;50308;47.438;-1.528;2023-04-06T07:15:21;39.03;;;15.73;;
64061;SDS011;50308;47.438;-1.528;2023-04-06T07:17:47;32.78;;;15.38;;
64061;SDS011;50308;47.438;-1.528;2023-04-06T07:20:13;36.95;;;15.60;;
64061;SDS011;50308;47.438;-1.528;2023-04-06T07:22:40;38.08;;;15.18;;
64061;SDS011;50308;47.438;-1.528;2023-04-06T07:25:07;45.38;;;16.88;;
64061;SDS011;50308;47.438;-1.528;2023-04-06T07:27:33;32.08;;;14.57;;
64061;SDS011;50308;47.438;-1.528;2023-04-06T07:29:59;37.15;;;17.48;;
64061;SDS011;50308;47.438;-1.528;2023-04-06T07:32:25;54.78;;;27.17;;
64061;SDS011;50308;47.438;-1.528;2023-04-06T07:34:51;69.40;;;35.70;;
64061;SDS011;50308;47.438;-1.528;2023-04-06T07:37:16;78.70;;;37.30;;
64061;SDS011;50308;47.438;-1.528;2023-04-06T07:39:42;67.78;;;29.05;;
64061;SDS011;50308;47.438;-1.528;2023-04-06T07:42:08;55.25;;;26.88;;
64061;SDS011;50308;47.438;-1.528;2023-04-06T07:44:34;79.28;;;33.53;;
64061;SDS011;50308;47.438;-1.528;2023-04-06T07:47:00;67.65;;;29.38;;
64061;SDS011;50308;47.438;-1.528;2023-04-06T07:49:25;92.22;;;36.88;;
64061;SDS011;50308;47.438;-1.528;2023-04-06T07:51:51;71.18;;;31.83;;
64061;SDS011;50308;47.438;-1.528;2023-04-06T07:54:17;62.55;;;29.88;;
64061;SDS011;50308;47.438;-1.528;2023-04-06T07:56:42;56.10;;;27.55;;
64061;SDS011;50308;47.438;-1.528;2023-04-06T07:59:08;54.00;;;26.98;;
64061;SDS011;50308;47.438;-1.528;2023-04-06T08:01:36;46.78;;;24.30;;
64061;SDS011;50308;47.438;-1.528;2023-04-06T08:04:01;54.13;;;26.63;;
64061;SDS011;50308;47.438;-1.528;2023-04-06T08:06:27;45.70;;;26.98;;
64061;SDS011;50308;47.438;-1.528;2023-04-06T08:08:53;38.80;;;24.40;;
64061;SDS011;50308;47.438;-1.528;2023-04-06T08:11:19;35.15;;;19.17;;
64061;SDS011;50308;47.438;-1.528;2023-04-06T08:13:45;31.85;;;20.33;;
64061;SDS011;50308;47.438;-1.528;2023-04-06T08:16:11;27.98;;;17.75;;
64061;SDS011;50308;47.438;-1.528;2023-04-06T08:18:37;26.10;;;17.27;;
64061;SDS011;50308;47.438;-1.528;2023-04-06T08:21:03;23.70;;;15.10;;
64061;SDS011;50308;47.438;-1.528;2023-04-06T08:23:28;22.38;;;14.10;;
64061;SDS011;50308;47.438;-1.528;2023-04-06T08:25:54;22.05;;;13.52;;
64061;SDS011;50308;47.438;-1.528;2023-04-06T08:28:21;19.27;;;14.18;;
64061;SDS011;50308;47.438;-1.528;2023-04-06T08:30:46;16.52;;;12.15;;
64061;SDS011;50308;47.438;-1.528;2023-04-06T08:33:12;19.33;;;11.55;;
64061;SDS011;50308;47.438;-1.528;2023-04-06T08:35:38;15.15;;;10.75;;
64061;SDS011;50308;47.438;-1.528;2023-04-06T08:38:04;16.50;;;11.05;;
64061;SDS011;50308;47.438;-1.528;2023-04-06T08:40:35;13.25;;;9.77;;
64061;SDS011;50308;47.438;-1.528;2023-04-06T08:43:06;15.25;;;9.85;;
64061;SDS011;50308;47.438;-1.528;2023-04-06T08:45:35;12.45;;;8.77;;
64061;SDS011;50308;47.438;-1.528;2023-04-06T08:48:00;12.32;;;8.35;;
64061;SDS011;50308;47.438;-1.528;2023-04-06T08:50:29;10.70;;;7.43;;
64061;SDS011;50308;47.438;-1.528;2023-04-06T08:52:55;13.30;;;8.27;;
64061;SDS011;50308;47.438;-1.528;2023-04-06T08:55:22;9.85;;;6.82;;
64061;SDS011;50308;47.438;-1.528;2023-04-06T08:57:48;10.45;;;7.40;;
64061;SDS011;50308;47.438;-1.528;2023-04-06T09:00:15;11.27;;;6.68;;
64061;SDS011;50308;47.438;-1.528;2023-04-06T09:02:43;8.77;;;5.80;;
64061;SDS011;50308;47.438;-1.528;2023-04-06T09:05:10;8.32;;;6.07;;
64061;SDS011;50308;47.438;-1.528;2023-04-06T09:07:37;9.25;;;6.13;;
64061;SDS011;50308;47.438;-1.528;2023-04-06T09:10:04;11.05;;;6.18;;
64061;SDS011;50308;47.438;-1.528;2023-04-06T09:12:31;7.40;;;5.70;;
64061;SDS011;50308;47.438;-1.528;2023-04-06T09:14:58;9.43;;;5.55;;
64061;SDS011;50308;47.438;-1.528;2023-04-06T09:17:28;8.27;;;6.03;;
64061;SDS011;50308;47.438;-1.528;2023-04-06T09:19:55;9.80;;;5.95;;
64061;SDS011;50308;47.438;-1.528;2023-04-06T09:22:21;7.63;;;5.13;;
64061;SDS011;50308;47.438;-1.528;2023-04-06T09:24:50;7.68;;;5.90;;
64061;SDS011;50308;47.438;-1.528;2023-04-06T09:27:17;8.98;;;5.03;;
64061;SDS011;50308;47.438;-1.528;2023-04-06T09:30:02;6.85;;;4.63;;
64061;SDS011;50308;47.438;-1.528;2023-04-06T09:32:32;5.45;;;4.75;;
64061;SDS011;50308;47.438;-1.528;2023-04-06T09:35:08;6.22;;;4.50;;
64061;SDS011;50308;47.438;-1.528;2023-04-06T09:37:34;7.82;;;5.45;;
64061;SDS011;50308;47.438;-1.528;2023-04-06T09:40:06;8.75;;;4.82;;
64061;SDS011;50308;47.438;-1.528;2023-04-06T09:42:33;8.35;;;5.70;;
64061;SDS011;50308;47.438;-1.528;2023-04-06T09:45:00;8.60;;;5.13;;
64061;SDS011;50308;47.438;-1.528;2023-04-06T09:47:26;5.90;;;4.95;;
64061;SDS011;50308;47.438;-1.528;2023-04-06T09:49:56;8.63;;;5.72;;
64061;SDS011;50308;47.438;-1.528;2023-04-06T09:52:27;9.38;;;5.35;;
64061;SDS011;50308;47.438;-1.528;2023-04-06T09:55:23;8.45;;;5.20;;
64061;SDS011;50308;47.438;-1.528;2023-04-06T10:00:32;6.85;;;4.47;;
64061;SDS011;50308;47.438;-1.528;2023-04-06T10:05:46;6.53;;;4.10;;
64061;SDS011;50308;47.438;-1.528;2023-04-06T10:08:17;7.28;;;4.72;;
64061;SDS011;50308;47.438;-1.528;2023-04-06T10:10:46;8.13;;;5.03;;
64061;SDS011;50308;47.438;-1.528;2023-04-06T10:13:12;6.85;;;4.50;;
64061;SDS011;50308;47.438;-1.528;2023-04-06T10:15:38;5.95;;;4.10;;
64061;SDS011;50308;47.438;-1.528;2023-04-06T10:18:07;7.80;;;4.70;;
64061;SDS011;50308;47.438;-1.528;2023-04-06T10:23:26;5.67;;;4.53;;
64061;SDS011;50308;47.438;-1.528;2023-04-06T10:26:13;5.60;;;4.30;;
64061;SDS011;50308;47.438;-1.528;2023-04-06T10:28:45;5.53;;;4.20;;
64061;SDS011;50308;47.438;-1.528;2023-04-06T10:31:12;5.43;;;4.15;;
64061;SDS011;50308;47.438;-1.528;2023-04-06T10:33:38;7.00;;;5.20;;
64061;SDS011;50308;47.438;-1.528;2023-04-06T10:36:12;6.45;;;4.05;;
64061;SDS011;50308;47.438;-1.528;2023-04-06T10:38:39;9.38;;;4.63;;
64061;SDS011;50308;47.438;-1.528;2023-04-06T10:41:06;6.20;;;3.42;;
64061;SDS011;50308;47.438;-1.528;2023-04-06T10:43:33;5.13;;;4.07;;
64061;SDS011;50308;47.438;-1.528;2023-04-06T10:46:03;6.30;;;4.22;;
64061;SDS011;50308;47.438;-1.528;2023-04-06T10:48:37;12.38;;;6.25;;
64061;SDS011;50308;47.438;-1.528;2023-04-06T10:51:13;6.80;;;4.35;;
64061;SDS011;50308;47.438;-1.528;2023-04-06T10:53:46;18.42;;;8.27;;
64061;SDS011;50308;47.438;-1.528;2023-04-06T10:56:17;36.00;;;12.40;;
64061;SDS011;50308;47.438;-1.528;2023-04-06T10:58:49;42.10;;;15.73;;
64061;SDS011;50308;47.438;-1.528;2023-04-06T11:01:21;43.55;;;15.90;;
64061;SDS011;50308;47.438;-1.528;2023-04-06T11:03:50;40.38;;;15.05;;
64061;SDS011;50308;47.438;-1.528;2023-04-06T11:06:20;41.08;;;16.00;;
64061;SDS011;50308;47.438;-1.528;2023-04-06T11:08:54;38.13;;;15.25;;
64061;SDS011;50308;47.438;-1.528;2023-04-06T11:11:21;32.90;;;14.63;;
64061;SDS011;50308;47.438;-1.528;2023-04-06T11:13:52;33.00;;;14.90;;
64061;SDS011;50308;47.438;-1.528;2023-04-06T11:16:25;31.95;;;13.98;;
64061;SDS011;50308;47.438;-1.528;2023-04-06T11:18:59;33.97;;;14.43;;
64061;SDS011;50308;47.438;-1.528;2023-04-06T11:21:33;23.75;;;13.18;;
64061;SDS011;50308;47.438;-1.528;2023-04-06T11:26:48;25.73;;;11.82;;
64061;SDS011;50308;47.438;-1.528;2023-04-06T11:29:17;23.52;;;11.50;;
64061;SDS011;50308;47.438;-1.528;2023-04-06T11:31:48;17.30;;;10.93;;
64061;SDS011;50308;47.438;-1.528;2023-04-06T11:34:16;19.33;;;10.52;;
64061;SDS011;50308;47.438;-1.528;2023-04-06T11:36:47;16.05;;;10.32;;
64061;SDS011;50308;47.438;-1.528;2023-04-06T11:39:18;18.25;;;9.25;;
64061;SDS011;50308;47.438;-1.528;2023-04-06T11:44:27;16.45;;;8.00;;
64061;SDS011;50308;47.438;-1.528;2023-04-06T11:47:08;14.70;;;8.95;;
64061;SDS011;50308;47.438;-1.528;2023-04-06T11:49:39;13.93;;;8.50;;
64061;SDS011;50308;47.438;-1.528;2023-04-06T11:54:42;13.18;;;8.40;;
64061;SDS011;50308;47.438;-1.528;2023-04-06T11:57:08;12.77;;;8.73;;
64061;SDS011;50308;47.438;-1.528;2023-04-06T11:59:34;12.02;;;8.20;;
64061;SDS011;50308;47.438;-1.528;2023-04-06T12:02:00;16.00;;;8.40;;
64061;SDS011;50308;47.438;-1.528;2023-04-06T12:04:27;14.13;;;9.05;;
64061;SDS011;50308;47.438;-1.528;2023-04-06T12:06:52;13.77;;;8.05;;
64061;SDS011;50308;47.438;-1.528;2023-04-06T12:09:18;12.02;;;8.20;;
64061;SDS011;50308;47.438;-1.528;2023-04-06T12:11:44;11.27;;;8.48;;
64061;SDS011;50308;47.438;-1.528;2023-04-06T12:14:10;11.25;;;6.75;;
64061;SDS011;50308;47.438;-1.528;2023-04-06T12:16:36;13.52;;;7.60;;
64061;SDS011;50308;47.438;-1.528;2023-04-06T12:19:02;11.43;;;7.40;;
64061;SDS011;50308;47.438;-1.528;2023-04-06T12:21:28;11.07;;;7.20;;
64061;SDS011;50308;47.438;-1.528;2023-04-06T12:23:58;9.45;;;6.97;;
64061;SDS011;50308;47.438;-1.528;2023-04-06T12:26:24;10.43;;;7.55;;
64061;SDS011;50308;47.438;-1.528;2023-04-06T12:28:50;9.70;;;6.80;;
64061;SDS011;50308;47.438;-1.528;2023-04-06T12:31:16;10.57;;;7.47;;
64061;SDS011;50308;47.438;-1.528;2023-04-06T12:33:43;10.00;;;6.97;;
64061;SDS011;50308;47.438;-1.528;2023-04-06T12:36:14;12.88;;;6.70;;
64061;SDS011;50308;47.438;-1.528;2023-04-06T12:38:43;9.77;;;6.95;;
64061;SDS011;50308;47.438;-1.528;2023-04-06T12:41:10;10.85;;;6.68;;
64061;SDS011;50308;47.438;-1.528;2023-04-06T12:43:37;12.48;;;7.68;;
64061;SDS011;50308;47.438;-1.528;2023-04-06T12:46:04;11.63;;;8.02;;
64061;SDS011;50308;47.438;-1.528;2023-04-06T12:48:30;12.02;;;7.97;;
64061;SDS011;50308;47.438;-1.528;2023-04-06T12:51:00;14.30;;;8.75;;
64061;SDS011;50308;47.438;-1.528;2023-04-06T12:53:27;12.57;;;7.93;;
64061;SDS011;50308;47.438;-1.528;2023-04-06T12:55:53;14.35;;;7.57;;
64061;SDS011;50308;47.438;-1.528;2023-04-06T12:58:20;12.02;;;8.02;;
64061;SDS011;50308;47.438;-1.528;2023-04-06T13:00:49;14.07;;;8.45;;
64061;SDS011;50308;47.438;-1.528;2023-04-06T13:03:16;13.57;;;8.05;;
64061;SDS011;50308;47.438;-1.528;2023-04-06T13:05:49;13.13;;;7.72;;
64061;SDS011;50308;47.438;-1.528;2023-04-06T13:08:16;16.27;;;9.48;;
64061;SDS011;50308;47.438;-1.528;2023-04-06T13:10:43;16.65;;;8.73;;
64061;SDS011;50308;47.438;-1.528;2023-04-06T13:13:12;19.00;;;8.68;;
64061;SDS011;50308;47.438;-1.528;2023-04-06T13:15:37;16.70;;;9.75;;
64061;SDS011;50308;47.438;-1.528;2023-04-06T13:18:03;19.20;;;9.15;;
64061;SDS011;50308;47.438;-1.528;2023-04-06T13:20:29;22.00;;;10.43;;
64061;SDS011;50308;47.438;-1.528;2023-04-06T13:22:55;18.88;;;8.35;;
64061;SDS011;50308;47.438;-1.528;2023-04-06T13:25:21;12.82;;;6.90;;
64061;SDS011;50308;47.438;-1.528;2023-04-06T13:27:47;14.13;;;6.20;;
64061;SDS011;50308;47.438;-1.528;2023-04-06T13:30:13;12.75;;;6.13;;
64061;SDS011;50308;47.438;-1.528;2023-04-06T13:32:39;10.65;;;5.25;;
64061;SDS011;50308;47.438;-1.528;2023-04-06T13:35:06;9.98;;;5.20;;
64061;SDS011;50308;47.438;-1.528;2023-04-06T13:37:32;6.10;;;3.95;;
64061;SDS011;50308;47.438;-1.528;2023-04-06T13:39:58;8.70;;;4.53;;
64061;SDS011;50308;47.438;-1.528;2023-04-06T13:42:24;5.82;;;3.83;;
64061;SDS011;50308;47.438;-1.528;2023-04-06T13:44:50;6.18;;;3.88;;
64061;SDS011;50308;47.438;-1.528;2023-04-06T13:47:16;5.10;;;3.03;;
64061;SDS011;50308;47.438;-1.528;2023-04-06T13:49:42;5.60;;;2.90;;
64061;SDS011;50308;47.438;-1.528;2023-04-06T13:52:08;6.18;;;3.17;;
64061;SDS011;50308;47.438;-1.528;2023-04-06T13:54:35;4.88;;;2.95;;
64061;SDS011;50308;47.438;-1.528;2023-04-06T13:57:01;4.38;;;3.10;;
64061;SDS011;50308;47.438;-1.528;2023-04-06T13:59:36;9.13;;;3.50;;
64061;SDS011;50308;47.438;-1.528;2023-04-06T14:02:03;6.40;;;3.10;;
64061;SDS011;50308;47.438;-1.528;2023-04-06T14:04:30;6.03;;;3.78;;
64061;SDS011;50308;47.438;-1.528;2023-04-06T14:06:57;5.00;;;3.40;;
64061;SDS011;50308;47.438;-1.528;2023-04-06T14:09:23;6.07;;;3.22;;
64061;SDS011;50308;47.438;-1.528;2023-04-06T14:11:49;7.22;;;3.92;;
64061;SDS011;50308;47.438;-1.528;2023-04-06T14:14:15;7.80;;;3.85;;
64061;SDS011;50308;47.438;-1.528;2023-04-06T14:16:41;5.35;;;3.50;;
64061;SDS011;50308;47.438;-1.528;2023-04-06T14:19:10;8.93;;;4.65;;
64061;SDS011;50308;47.438;-1.528;2023-04-06T14:21:39;5.63;;;4.15;;
64061;SDS011;50308;47.438;-1.528;2023-04-06T14:24:06;7.78;;;4.63;;
64061;SDS011;50308;47.438;-1.528;2023-04-06T14:26:33;8.00;;;3.97;;
64061;SDS011;50308;47.438;-1.528;2023-04-06T14:29:00;6.57;;;3.50;;
64061;SDS011;50308;47.438;-1.528;2023-04-06T14:31:26;5.40;;;3.53;;